Olney Springs, Colorado
Current Conditions -  °F | °C
As of 9:53 PM on Friday 24 Oct 2014 (Local Time) from KLHX Reporting Station
Clear Clear  
Wind Chill: 60°   Ceiling: Unl
Heat Index: 60°   Visibility: 10mi
Dew Point: 35°   Wind: 7mph
Humidity: 39%   Direction: 60°ENE
Pressure: 30.13"   Gusts: NA
Location:  38.17°N, 103.94°W
Report Text: KLHX 250353Z AUTO 06006KT 10SM CLR 16/02 A3013 RMK AO2 SLP160 T01560017
Loading
Personal Weather Stations






























Interactive Weather Map
Tropical Storm Tracking
New forecast layout! Learn more

10-Day Weather Forecast

Advertisements
Track Severe Weather on mobile